首页
METAR-TAF:

METAR-TAF

机场 :

海參崴, 俄罗斯

海參崴國際機場

纬度: 43-07N, 经度: 131-56E, 海拔: 184米

当前天气观测

该预报发布于16分钟前的05:30 UTC
风速2节,风向多变
温度 -4°C
湿度 25%
气压 1026 hPa
能见度10公里或以上

METAR: UHWW 250530Z VRB01MPS 9999 NSC M04/M21 Q1026 R25L/0///70 NOSIG RMK QFE768

时间: 15:46 (05:46 UTC)

预报

该预报发布于6小时和46分钟前的23:00 UTC
预报有效从25日的 00点(UTC)到 25日的 24点(UTC)
风速2节,风向多变
能見度: 5000
从 25日的 0200点(UTC)
风速6节,风向南转南东
能见度10公里或以上
散云层高于3000英尺

TAF: UHWW 242300Z 2500/2524 VRB01MPS 5000 HZ NSC FM250200 15003MPS 9999 SCT030

超过4000个机场的气象观测和天气预报(METAR&TAF报告)。

可查询的气象台以黄色和红色小点在地图上表示。

将鼠标移到小点上方,可查看气象台名称。

然后点击查看天气观测和预报。

如需切换地图:点击带黑十字的绿色按钮放大地图;点击带横线的绿色按钮缩小地图;或者点击绿色箭头查看邻近地区的地图。


METAR-TAF: